Rocky Ridge, Utah
Current Conditions -  °F | °C
As of 1:51 PM on Saturday 20 Dec 2014 (Local Time) from KPVU Reporting Station
Rain Showers Rain Showers  
Wind Chill: 39°   Ceiling: 1500
Heat Index: 39°   Visibility: 10mi
Dew Point: 34°   Wind: 0mph
Humidity: 81%   Direction: NA
Pressure: 30.11"   Gusts: NA
Location:  39.852°N, 111.839°W
Report Text: KPVU 202051Z 00000KT 10SM VCSH OVC015 04/01 A3011
Loading
Personal Weather Stations






























Interactive Weather Map New forecast layout! Learn more

10-Day Weather Forecast

Advertisements
Track Severe Weather on mobile